createdAt,value
2023-04-05T00:00:11.152Z,3.40
2023-04-05T00:02:40.771Z,3.90
2023-04-05T00:06:10.454Z,3.73
2023-04-05T00:08:38.616Z,3.50
2023-04-05T00:11:07.208Z,3.30
2023-04-05T00:13:35.552Z,3.40
2023-04-05T00:16:05.938Z,3.07
2023-04-05T00:18:35.194Z,3.40
2023-04-05T00:21:03.294Z,3.43
2023-04-05T00:23:37.512Z,3.47
2023-04-05T00:26:05.671Z,3.33
2023-04-05T00:28:33.849Z,3.00
2023-04-05T00:31:01.959Z,3.37
2023-04-05T00:33:31.479Z,3.03
2023-04-05T00:35:59.697Z,3.67
2023-04-05T00:38:27.742Z,3.00
2023-04-05T00:40:55.764Z,4.23
2023-04-05T00:43:23.805Z,3.00
2023-04-05T00:45:51.928Z,4.63
2023-04-05T00:48:20.211Z,3.47
2023-04-05T00:50:51.608Z,2.93
2023-04-05T00:53:21.170Z,3.57
2023-04-05T00:55:50.783Z,3.60
2023-04-05T00:58:22.204Z,3.00
2023-04-05T01:00:59.455Z,3.40
2023-04-05T01:03:31.200Z,3.87
2023-04-05T01:06:18.479Z,3.60
2023-04-05T01:08:56.301Z,3.20
2023-04-05T01:11:26.505Z,3.07
2023-04-05T01:14:00.533Z,3.77
2023-04-05T01:16:28.866Z,3.40
2023-04-05T01:18:57.727Z,3.63
2023-04-05T01:22:14.936Z,3.77
2023-04-05T01:25:06.816Z,3.43
2023-04-05T01:27:51.380Z,3.53
2023-04-05T01:30:25.515Z,3.97
2023-04-05T01:33:05.221Z,3.60
2023-04-05T01:35:41.396Z,3.60
2023-04-05T01:38:12.730Z,3.90
2023-04-05T01:40:42.762Z,3.20
2023-04-05T01:43:15.286Z,3.80
2023-04-05T01:45:45.390Z,3.73
2023-04-05T01:48:14.303Z,3.50
2023-04-05T01:50:42.647Z,3.20
2023-04-05T01:53:11.020Z,3.50
2023-04-05T01:55:39.221Z,3.90
2023-04-05T01:58:07.519Z,3.90
2023-04-05T02:00:35.675Z,3.70
2023-04-05T02:03:05.553Z,4.10
2023-04-05T02:05:33.697Z,4.07
2023-04-05T02:08:01.754Z,4.13
2023-04-05T02:10:29.941Z,4.60
2023-04-05T02:12:58.031Z,3.27
2023-04-05T02:15:26.210Z,4.00
2023-04-05T02:17:54.417Z,3.70
2023-04-05T02:20:26.008Z,3.33
2023-04-05T02:22:54.224Z,3.70
2023-04-05T02:25:22.387Z,3.30
2023-04-05T02:27:50.972Z,3.97
2023-04-05T02:30:19.009Z,3.53
2023-04-05T02:32:47.158Z,3.70
2023-04-05T02:35:17.412Z,3.87
2023-04-05T02:37:47.096Z,3.47
2023-04-05T02:40:16.102Z,3.80
2023-04-05T02:42:44.302Z,4.23
2023-04-05T02:45:12.625Z,3.43
2023-04-05T02:47:40.867Z,3.47
2023-04-05T02:50:09.616Z,3.60
2023-04-05T02:52:38.015Z,3.53
2023-04-05T02:55:08.123Z,3.97
2023-04-05T02:57:36.199Z,4.60
2023-04-05T03:00:05.308Z,3.70
2023-04-05T03:08:18.662Z,3.90
2023-04-05T03:10:48.509Z,4.20
2023-04-05T03:13:16.597Z,4.00
2023-04-05T03:15:44.970Z,4.00
2023-04-05T03:18:13.275Z,3.93
2023-04-05T03:20:41.500Z,3.60
2023-04-05T03:23:09.937Z,3.57
2023-04-05T03:25:38.423Z,4.07
2023-04-05T03:28:09.192Z,4.30
2023-04-05T03:30:37.661Z,4.20
2023-04-05T03:33:06.158Z,4.30
2023-04-05T03:35:34.326Z,3.60
2023-04-05T03:38:02.513Z,3.77
2023-04-05T03:40:30.610Z,4.77
2023-04-05T03:42:58.737Z,4.23
2023-04-05T03:45:29.542Z,4.60
2023-04-05T03:47:57.782Z,3.63
2023-04-05T03:50:26.413Z,4.83
2023-04-05T03:52:54.704Z,4.07
2023-04-05T03:55:22.790Z,5.10
2023-04-05T03:57:51.120Z,4.60
2023-04-05T04:00:20.081Z,4.50
2023-04-05T04:02:49.797Z,5.40
2023-04-05T04:05:18.820Z,4.40
2023-04-05T04:07:47.262Z,4.20
2023-04-05T04:10:18.077Z,4.67
2023-04-05T04:12:46.530Z,4.87
2023-04-05T04:15:14.615Z,5.20
2023-04-05T04:17:42.792Z,4.70
2023-04-05T04:20:13.422Z,4.70
2023-04-05T04:22:41.560Z,5.10
2023-04-05T04:25:11.471Z,5.10
2023-04-05T04:27:42.169Z,4.97
2023-04-05T04:30:11.698Z,4.77
2023-04-05T04:32:52.877Z,4.70
2023-04-05T04:35:25.018Z,5.53
2023-04-05T04:37:55.031Z,4.80
2023-04-05T04:40:25.912Z,4.70
2023-04-05T04:42:54.819Z,4.90
2023-04-05T04:45:22.919Z,5.30
2023-04-05T04:47:53.651Z,4.37
2023-04-05T04:50:23.933Z,4.90
2023-04-05T04:52:51.988Z,4.73
2023-04-05T04:55:25.395Z,4.87
2023-04-05T04:57:54.478Z,5.57
2023-04-05T05:00:24.092Z,5.40
2023-04-05T05:02:53.416Z,4.67
2023-04-05T05:05:23.636Z,4.90
2023-04-05T05:07:52.814Z,5.30
2023-04-05T05:10:21.867Z,5.17
2023-04-05T05:12:49.938Z,5.20
2023-04-05T05:15:18.057Z,4.83
2023-04-05T05:17:46.480Z,5.10
2023-04-05T05:20:14.622Z,5.77
2023-04-05T05:22:44.063Z,5.40
2023-04-05T05:25:12.481Z,4.67
2023-04-05T05:27:40.573Z,5.30
2023-04-05T05:30:09.539Z,5.80
2023-04-05T05:32:37.646Z,4.87
2023-04-05T05:35:07.972Z,6.50
2023-04-05T05:37:36.724Z,5.53
2023-04-05T05:40:07.324Z,5.90
2023-04-05T05:42:36.014Z,4.87
2023-04-05T05:45:05.790Z,6.40
2023-04-05T05:47:34.064Z,5.80
2023-04-05T05:50:02.164Z,5.70
2023-04-05T05:52:30.261Z,6.63
2023-04-05T05:54:58.373Z,5.87
2023-04-05T05:57:27.883Z,5.87
2023-04-05T05:59:55.940Z,5.33
2023-04-05T06:02:24.044Z,5.67
2023-04-05T06:04:52.228Z,6.10
2023-04-05T06:07:21.376Z,5.40
2023-04-05T06:09:49.437Z,6.17
2023-04-05T06:12:17.528Z,5.33
2023-04-05T06:14:46.963Z,5.03
2023-04-05T06:17:15.047Z,4.80
2023-04-05T06:19:43.091Z,4.23
2023-04-05T06:22:11.129Z,4.43
2023-04-05T06:24:39.174Z,4.17
2023-04-05T06:27:07.288Z,4.60
2023-04-05T06:29:35.430Z,4.63
2023-04-05T06:32:05.194Z,4.90
2023-04-05T06:34:33.862Z,4.87
2023-04-05T06:37:02.856Z,4.60
2023-04-05T06:39:31.877Z,4.73
2023-04-05T06:42:00.049Z,5.40
2023-04-05T06:44:28.182Z,3.90
2023-04-05T06:46:56.227Z,4.53
2023-04-05T06:49:25.736Z,5.17
2023-04-05T07:04:12.762Z,3.80
2023-04-05T07:06:42.300Z,4.32
2023-04-05T07:09:10.440Z,4.40
2023-04-05T07:11:39.980Z,4.13
2023-04-05T07:14:08.132Z,4.18
2023-04-05T07:16:36.259Z,4.25
2023-04-05T07:19:06.090Z,4.60
2023-04-05T07:21:34.787Z,4.35
2023-04-05T07:24:04.295Z,4.88
2023-04-05T07:26:35.024Z,3.75
2023-04-05T07:29:03.124Z,4.25
2023-04-05T07:31:31.426Z,4.07
2023-04-05T07:34:00.958Z,4.53
2023-04-05T07:36:30.806Z,4.57
2023-04-05T07:38:59.371Z,4.43
2023-04-05T07:41:31.799Z,3.97
2023-04-05T07:44:00.210Z,3.88
2023-04-05T07:46:28.685Z,4.60
2023-04-05T07:48:56.898Z,4.53
2023-04-05T07:51:24.990Z,4.13
2023-04-05T07:53:53.076Z,4.32
2023-04-05T07:56:21.273Z,4.00
2023-04-05T07:58:51.829Z,4.07
2023-04-05T08:01:19.940Z,3.97
2023-04-05T08:03:48.137Z,3.60
2023-04-05T08:06:18.337Z,3.78
2023-04-05T08:08:47.054Z,3.90
2023-04-05T08:11:15.614Z,4.00
2023-04-05T08:13:43.904Z,3.85
2023-04-05T08:16:13.523Z,4.00
2023-04-05T08:18:41.692Z,3.40
2023-04-05T08:21:09.869Z,3.33
2023-04-05T08:23:38.423Z,3.30
2023-04-05T08:26:07.851Z,3.65
2023-04-05T08:28:36.304Z,3.33
2023-04-05T08:31:04.436Z,3.50
2023-04-05T08:33:33.918Z,3.33
2023-04-05T08:36:06.269Z,3.25
2023-04-05T08:38:34.556Z,3.20
2023-04-05T08:41:09.682Z,3.53
2023-04-05T08:43:56.101Z,3.60
2023-04-05T08:46:25.351Z,3.80
2023-04-05T08:48:54.925Z,3.38
2023-04-05T08:51:23.946Z,4.35
2023-04-05T08:53:52.210Z,3.97
2023-04-05T08:56:22.939Z,3.60
2023-04-05T08:59:02.914Z,3.60
2023-04-05T09:01:32.374Z,4.40
2023-04-05T09:04:07.244Z,3.30
2023-04-05T09:06:36.929Z,3.35
2023-04-05T09:09:08.554Z,3.88
2023-04-05T09:11:36.984Z,4.05
2023-04-05T09:14:05.535Z,3.45
2023-04-05T09:16:37.652Z,4.15
2023-04-05T09:19:07.646Z,3.85
2023-04-05T09:22:00.680Z,3.65
2023-04-05T09:24:33.395Z,3.40
2023-04-05T09:27:08.836Z,3.28
2023-04-05T09:29:38.063Z,3.45
2023-04-05T09:32:07.805Z,3.30
2023-04-05T09:34:38.066Z,3.33
2023-04-05T09:37:14.738Z,3.65
2023-04-05T09:39:43.787Z,3.20
2023-04-05T09:42:13.361Z,3.55
2023-04-05T09:44:54.130Z,3.33
2023-04-05T09:47:23.268Z,3.30
2023-04-05T09:49:52.985Z,3.20
2023-04-05T09:52:22.540Z,3.38
2023-04-05T09:54:52.946Z,3.10
2023-04-05T09:57:21.086Z,2.72
2023-04-05T10:03:31.817Z,3.30
2023-04-05T10:06:01.457Z,3.30
2023-04-05T10:08:29.708Z,3.50
2023-04-05T10:10:58.652Z,3.80
2023-04-05T10:13:26.897Z,3.97
2023-04-05T10:15:58.812Z,3.63
2023-04-05T10:18:31.207Z,3.78
2023-04-05T10:21:02.062Z,4.05
2023-04-05T10:23:33.648Z,3.67
2023-04-05T10:26:09.132Z,3.80
2023-04-05T10:28:38.535Z,3.87
2023-04-05T10:31:16.855Z,3.67
2023-04-05T10:33:52.236Z,4.30
2023-04-05T10:36:31.496Z,3.43
2023-04-05T10:39:04.897Z,3.80
2023-04-05T10:41:37.638Z,3.87
2023-04-05T10:44:22.528Z,3.80
2023-04-05T10:46:55.380Z,3.87
2023-04-05T10:49:26.560Z,3.73
2023-04-05T10:51:56.912Z,3.67
2023-04-05T10:54:25.701Z,3.63
2023-04-05T10:56:54.435Z,3.50
2023-04-05T10:59:23.415Z,4.20
2023-04-05T11:01:52.433Z,3.80
2023-04-05T11:04:21.320Z,3.97
2023-04-05T11:07:09.535Z,3.60
2023-04-05T11:09:41.328Z,3.60
2023-04-05T11:12:09.393Z,3.67
2023-04-05T11:14:39.364Z,3.63
2023-04-05T11:17:26.050Z,4.03
2023-04-05T11:20:03.931Z,4.27
2023-04-05T11:30:15.522Z,3.23
2023-04-05T11:36:41.644Z,3.77
2023-04-05T11:39:33.533Z,3.93
2023-04-05T11:42:03.099Z,3.80
2023-04-05T11:44:40.218Z,3.90
2023-04-05T11:47:10.883Z,3.73
2023-04-05T11:49:39.366Z,3.50
2023-04-05T11:52:18.017Z,3.70
2023-04-05T11:54:47.310Z,3.80
2023-04-05T11:57:17.474Z,4.73
2023-04-05T11:59:45.788Z,3.80
2023-04-05T12:02:15.866Z,3.37
2023-04-05T12:04:44.005Z,3.70
2023-04-05T12:07:13.450Z,3.90
2023-04-05T12:10:07.354Z,3.80
2023-04-05T12:12:39.965Z,3.97
2023-04-05T12:15:10.913Z,3.47
2023-04-05T12:17:45.879Z,3.40
2023-04-05T12:20:15.661Z,3.20
2023-04-05T12:22:45.502Z,3.40
2023-04-05T12:25:14.684Z,3.43
2023-04-05T12:27:43.560Z,3.63
2023-04-05T12:30:17.801Z,3.20
2023-04-05T12:32:49.280Z,3.27
2023-04-05T12:35:19.137Z,3.60
2023-04-05T12:37:47.763Z,3.80
2023-04-05T12:40:21.022Z,2.97
2023-04-05T12:42:49.144Z,3.77
2023-04-05T12:45:17.626Z,2.90
2023-04-05T12:47:54.213Z,3.30
2023-04-05T12:50:28.757Z,3.43
2023-04-05T12:52:58.214Z,3.47
2023-04-05T12:55:27.038Z,3.77
2023-04-05T12:57:56.443Z,3.20
2023-04-05T13:00:27.819Z,3.00
2023-04-05T13:03:01.130Z,3.53
2023-04-05T13:05:30.805Z,3.43
2023-04-05T13:13:45.101Z,3.00
2023-04-05T13:16:13.243Z,3.37
2023-04-05T13:18:42.753Z,2.80
2023-04-05T13:21:11.450Z,3.43
2023-04-05T13:23:41.294Z,2.93
2023-04-05T13:26:10.345Z,3.73
2023-04-05T13:28:38.564Z,4.00
2023-04-05T13:31:08.379Z,3.37
2023-04-05T13:33:36.529Z,3.80
2023-04-05T13:36:06.548Z,3.47
2023-04-05T13:38:34.712Z,3.33
2023-04-05T13:41:02.762Z,3.67
2023-04-05T13:43:31.375Z,3.50
2023-04-05T13:45:59.686Z,4.00
2023-04-05T13:48:27.856Z,3.83
2023-04-05T13:50:55.952Z,3.80
2023-04-05T13:53:27.329Z,3.37
2023-04-05T13:55:56.630Z,3.73
2023-04-05T13:58:24.811Z,3.23
2023-04-05T14:00:54.091Z,3.83
2023-04-05T14:03:22.387Z,3.67
2023-04-05T14:05:52.316Z,3.77
2023-04-05T14:08:22.046Z,4.00
2023-04-05T14:10:51.571Z,4.30
2023-04-05T14:13:19.756Z,3.50
2023-04-05T14:15:48.023Z,4.10
2023-04-05T14:18:16.261Z,4.13
2023-04-05T14:20:44.619Z,3.67
2023-04-05T14:23:14.358Z,3.97
2023-04-05T14:25:42.733Z,3.60
2023-04-05T14:28:12.551Z,3.40
2023-04-05T14:30:40.946Z,4.60
2023-04-05T14:33:09.400Z,3.90
2023-04-05T14:35:37.695Z,4.00
2023-04-05T14:38:05.994Z,4.30
2023-04-05T14:40:34.197Z,3.70
2023-04-05T14:43:02.466Z,3.90
2023-04-05T14:45:32.644Z,3.90
2023-04-05T14:48:01.036Z,4.03
2023-04-05T14:50:32.347Z,4.27
2023-04-05T14:53:00.747Z,3.87
2023-04-05T14:55:29.048Z,4.40
2023-04-05T14:57:57.253Z,4.27
2023-04-05T15:00:25.593Z,4.20
2023-04-05T15:02:55.490Z,4.00
2023-04-05T15:05:23.838Z,3.97
2023-04-05T15:07:51.986Z,4.00
2023-04-05T15:10:20.362Z,4.10
2023-04-05T15:12:50.290Z,3.77
2023-04-05T15:15:18.893Z,4.30
2023-04-05T15:17:47.123Z,3.67
2023-04-05T15:20:16.898Z,5.67
2023-04-05T15:22:45.191Z,4.20
2023-04-05T15:25:13.794Z,4.00
2023-04-05T15:27:41.965Z,3.93
2023-04-05T15:30:11.245Z,4.47
2023-04-05T15:32:39.471Z,4.37
2023-04-05T15:35:08.194Z,4.47
2023-04-05T15:37:38.417Z,4.40
2023-04-05T15:40:07.876Z,4.73
2023-04-05T15:42:36.269Z,4.33
2023-04-05T15:45:04.767Z,4.20
2023-04-05T15:47:32.991Z,4.70
2023-04-05T15:50:01.287Z,4.20
2023-04-05T15:52:29.543Z,3.93
2023-04-05T15:54:59.111Z,4.70
2023-04-05T15:57:27.311Z,4.60
2023-04-05T15:59:55.470Z,4.23
2023-04-05T16:02:23.722Z,4.10
2023-04-05T16:04:51.900Z,4.00
2023-04-05T16:07:20.576Z,3.83
2023-04-05T16:09:48.778Z,4.50
2023-04-05T16:12:18.399Z,4.47
2023-04-05T16:14:46.660Z,4.57
2023-04-05T16:17:14.880Z,4.23
2023-04-05T16:19:43.013Z,4.53
2023-04-05T16:22:11.233Z,3.97
2023-04-05T16:24:39.409Z,4.27
2023-04-05T16:27:07.684Z,4.60
2023-04-05T16:29:37.200Z,4.23
2023-04-05T16:32:05.424Z,4.27
2023-04-05T16:34:33.651Z,4.50
2023-04-05T16:37:02.048Z,4.00
2023-04-05T16:39:30.220Z,4.00
2023-04-05T16:41:58.412Z,4.93
2023-04-05T16:44:26.697Z,4.37
2023-04-05T16:46:56.508Z,4.17
2023-04-05T16:49:24.792Z,5.03
2023-04-05T16:51:52.955Z,4.07
2023-04-05T16:54:21.619Z,4.37
2023-04-05T16:56:49.776Z,4.80
2023-04-05T16:59:18.040Z,5.10
2023-04-05T17:01:49.171Z,4.50
2023-04-05T17:04:18.774Z,4.57
2023-04-05T17:06:46.941Z,4.30
2023-04-05T17:09:15.259Z,4.37
2023-04-05T17:11:43.541Z,4.23
2023-04-05T17:14:11.887Z,4.67
2023-04-05T17:16:40.254Z,4.33
2023-04-05T17:19:08.486Z,4.20
2023-04-05T17:21:38.217Z,4.17
2023-04-05T17:24:08.859Z,4.27
2023-04-05T17:26:37.071Z,4.17
2023-04-05T17:29:05.490Z,4.33
2023-04-05T17:31:34.369Z,4.40
2023-04-05T17:34:03.073Z,4.97
2023-04-05T17:36:31.564Z,5.17
2023-04-05T17:39:01.116Z,4.87
2023-04-05T17:41:29.333Z,5.17
2023-04-05T17:43:57.546Z,4.17
2023-04-05T17:46:40.204Z,5.20
2023-04-05T17:49:09.749Z,5.60
2023-04-05T17:51:37.974Z,4.43
2023-04-05T17:54:07.739Z,4.50
2023-04-05T17:56:36.420Z,4.53
2023-04-05T17:59:06.245Z,4.40
2023-04-05T18:01:34.765Z,4.37
2023-04-05T18:04:05.055Z,4.43
2023-04-05T18:06:33.377Z,5.20
2023-04-05T18:09:02.427Z,3.87
2023-04-05T18:11:31.990Z,3.97
2023-04-05T18:14:00.189Z,4.60
2023-04-05T18:16:29.288Z,4.50
2023-04-05T18:18:57.528Z,4.20
2023-04-05T18:21:25.855Z,4.83
2023-04-05T18:23:54.068Z,5.37
2023-04-05T18:26:24.565Z,4.73
2023-04-05T18:28:59.687Z,4.60
2023-04-05T18:31:28.164Z,5.07
2023-04-05T18:33:56.411Z,5.17
2023-04-05T18:36:25.599Z,4.60
2023-04-05T18:38:55.670Z,4.40
2023-04-05T18:41:23.963Z,4.77
2023-04-05T18:43:55.780Z,4.97
2023-04-05T18:46:24.740Z,4.83
2023-04-05T18:48:54.801Z,4.97
2023-04-05T18:51:23.713Z,4.90
2023-04-05T18:53:51.982Z,5.07
2023-04-05T18:56:21.245Z,4.90
2023-04-05T18:58:49.996Z,4.33
2023-04-05T19:01:20.156Z,4.83
2023-04-05T19:03:49.072Z,4.67
2023-04-05T19:06:17.816Z,5.20
2023-04-05T19:08:48.005Z,4.70
2023-04-05T19:11:18.547Z,4.80
2023-04-05T19:13:47.477Z,4.37
2023-04-05T19:16:17.461Z,4.70
2023-04-05T19:18:47.134Z,4.67
2023-04-05T19:21:15.400Z,4.80
2023-04-05T19:23:43.714Z,4.60
2023-04-05T19:26:12.224Z,4.40
2023-04-05T19:28:40.660Z,4.80
2023-04-05T19:31:12.376Z,4.87
2023-04-05T19:41:13.383Z,4.67
2023-04-05T19:43:41.767Z,4.13
2023-04-05T19:46:11.408Z,5.17
2023-04-05T19:48:41.202Z,5.13
2023-04-05T19:51:10.385Z,4.43
2023-04-05T19:53:50.820Z,4.43
2023-04-05T19:56:22.881Z,3.77
2023-04-05T19:58:54.825Z,4.50
2023-04-05T20:01:35.280Z,4.13
2023-04-05T20:04:09.264Z,5.00
2023-04-05T20:06:37.627Z,4.33
2023-04-05T20:09:08.715Z,5.27
2023-04-05T20:11:38.939Z,4.57
2023-04-05T20:14:08.123Z,4.80
2023-04-05T20:16:38.136Z,5.10
2023-04-05T20:19:08.694Z,4.27
2023-04-05T20:21:38.406Z,5.03
2023-04-05T20:24:09.713Z,5.20
2023-04-05T20:26:39.316Z,5.47
2023-04-05T20:29:09.738Z,5.37
2023-04-05T20:31:40.157Z,4.37
2023-04-05T20:34:11.314Z,4.50
2023-04-05T20:36:44.234Z,4.60
2023-04-05T20:39:12.428Z,4.40
2023-04-05T20:41:41.972Z,4.63
2023-04-05T20:44:10.241Z,5.00
2023-04-05T20:46:39.103Z,4.97
2023-04-05T20:49:07.740Z,4.63
2023-04-05T20:51:36.389Z,4.83
2023-04-05T20:54:05.116Z,4.50
2023-04-05T20:56:33.691Z,5.03
2023-04-05T20:59:03.355Z,4.20
2023-04-05T21:01:31.755Z,4.33
2023-04-05T21:04:01.867Z,4.90
2023-04-05T21:06:30.075Z,4.80
2023-04-05T21:08:58.223Z,4.13
2023-04-05T21:11:26.447Z,3.97
2023-04-05T21:13:55.152Z,4.23
2023-04-05T21:24:27.333Z,4.30
2023-04-05T21:26:56.502Z,4.80
2023-04-05T21:29:24.774Z,3.97
2023-04-05T21:31:53.077Z,3.87
2023-04-05T21:34:22.509Z,3.80
2023-04-05T21:36:50.914Z,3.97
2023-04-05T21:39:19.073Z,3.83
2023-04-05T21:41:48.680Z,4.17
2023-04-05T21:44:16.810Z,4.17
2023-04-05T21:46:44.991Z,3.83
2023-04-05T21:49:13.254Z,3.47
2023-04-05T21:51:41.641Z,4.13
2023-04-05T21:54:09.871Z,4.20
2023-04-05T21:56:38.104Z,3.43
2023-04-05T21:59:08.129Z,3.40
2023-04-05T22:01:36.416Z,3.90
2023-04-05T22:04:04.627Z,4.10
2023-04-05T22:06:32.769Z,4.23
2023-04-05T22:09:01.057Z,3.87
2023-04-05T22:11:29.415Z,3.90
2023-04-05T22:13:57.602Z,3.40
2023-04-05T22:16:27.233Z,3.87
2023-04-05T22:18:55.461Z,4.20
2023-04-05T22:21:23.599Z,3.37
2023-04-05T22:23:51.744Z,4.13
2023-04-05T22:26:19.981Z,4.00
2023-04-05T22:28:48.133Z,3.80
2023-04-05T22:31:16.438Z,3.43
2023-04-05T22:33:46.150Z,3.80
2023-04-05T22:40:29.167Z,3.60
2023-04-05T22:42:57.467Z,3.83
2023-04-05T22:45:26.783Z,3.73
2023-04-05T22:47:55.881Z,4.63
2023-04-05T22:50:25.615Z,3.57
2023-04-05T22:52:53.731Z,4.07
2023-04-05T22:55:22.007Z,3.67
2023-04-05T22:57:50.581Z,3.93
2023-04-05T23:00:18.820Z,4.40
2023-04-05T23:02:47.055Z,4.20
2023-04-05T23:05:15.299Z,4.20
2023-04-05T23:07:44.862Z,4.47
2023-04-05T23:10:13.005Z,3.90
2023-04-05T23:12:41.134Z,3.80
2023-04-05T23:15:10.078Z,4.43
2023-04-05T23:17:38.555Z,3.70
2023-04-05T23:20:08.320Z,4.80
2023-04-05T23:22:36.874Z,4.77
2023-04-05T23:25:07.836Z,4.17
2023-04-05T23:31:16.676Z,4.67
2023-04-05T23:33:44.866Z,4.30
2023-04-05T23:36:13.601Z,4.47
2023-04-05T23:38:41.776Z,4.47
2023-04-05T23:41:11.349Z,3.90
2023-04-05T23:43:39.528Z,4.97
2023-04-05T23:46:07.999Z,4.77
2023-04-05T23:48:36.481Z,4.50
2023-04-05T23:51:05.014Z,5.00
2023-04-05T23:53:33.256Z,4.67
